Time;durP1;ratioP1;P1;durP2;ratioP2;P2;SDS_P1;SDS_P2;PMS_P1;PMS_P2;Temp;Humidity;BMP_temperature;BMP_pressure;BME280_temperature;BME280_humidity;BME280_pressure;Samples;Min_cycle;Max_cycle;Signal;HPM_P1;HPM_P2
2023/01/02 00:01:05;;;;;;;13.53;4.00;;;8.10;99.90;;;;;;5117047;28;20043;-74
2023/01/02 00:03:32;;;;;;;16.63;3.33;;;8.10;99.90;;;;;;5115965;28;20276;-74
2023/01/02 00:06:04;;;;;;;16.02;2.75;;;8.10;99.90;;;;;;5099214;28;20392;-74
2023/01/02 00:08:32;;;;;;;16.13;2.65;;;8.10;99.90;;;;;;5117059;28;20047;-73
2023/01/02 00:10:59;;;;;;;13.82;3.05;;;8.00;99.90;;;;;;5115829;28;20043;-72
2023/01/02 00:13:27;;;;;;;14.45;2.80;;;8.00;99.90;;;;;;5099210;28;20447;-74
2023/01/02 00:15:54;;;;;;;16.27;3.50;;;8.00;99.90;;;;;;5116762;28;20039;-73
2023/01/02 00:18:22;;;;;;;12.45;3.13;;;8.00;99.90;;;;;;5081191;28;20043;-72
2023/01/02 00:20:49;;;;;;;13.43;2.70;;;8.00;99.90;;;;;;5116362;28;20044;-73
2023/01/02 00:23:17;;;;;;;15.70;3.15;;;7.90;99.90;;;;;;5117083;28;20040;-75
2023/01/02 00:25:49;;;;;;;12.23;2.35;;;7.90;99.90;;;;;;5115481;28;20046;-73
2023/01/02 00:28:17;;;;;;;9.90;2.45;;;7.90;99.90;;;;;;5098934;28;20043;-73
2023/01/02 00:30:44;;;;;;;12.82;2.25;;;7.90;99.90;;;;;;5116051;28;20055;-74
2023/01/02 00:33:11;;;;;;;13.25;2.47;;;7.80;99.90;;;;;;5098892;28;20040;-74
2023/01/02 00:35:39;;;;;;;11.27;2.45;;;7.70;99.90;;;;;;5116246;28;20040;-74
2023/01/02 00:38:07;;;;;;;17.55;2.53;;;7.70;99.90;;;;;;5115497;28;20039;-74
2023/01/02 00:40:34;;;;;;;15.35;2.10;;;7.70;99.90;;;;;;5116571;28;20055;-73
2023/01/02 00:43:02;;;;;;;14.13;2.30;;;7.70;99.90;;;;;;5116165;28;20058;-74
2023/01/02 00:45:29;;;;;;;15.30;2.13;;;7.60;99.90;;;;;;5097268;28;20379;-74
2023/01/02 00:47:57;;;;;;;12.90;2.35;;;7.60;99.90;;;;;;5116196;28;20047;-74
2023/01/02 00:50:24;;;;;;;8.10;1.98;;;7.50;99.90;;;;;;5097167;28;20043;-73
2023/01/02 00:52:52;;;;;;;12.27;1.95;;;7.50;99.90;;;;;;5116299;28;20044;-74
2023/01/02 00:55:19;;;;;;;14.65;2.28;;;7.50;99.90;;;;;;5115857;28;20046;-73
2023/01/02 00:57:47;;;;;;;12.80;1.92;;;7.50;99.90;;;;;;5097786;28;20043;-73
2023/01/02 01:00:15;;;;;;;14.05;2.13;;;7.50;99.90;;;;;;5115951;28;20047;-73
2023/01/02 01:02:55;;;;;;;9.55;2.03;;;7.50;99.90;;;;;;5116208;28;20044;-73
2023/01/02 01:05:24;;;;;;;14.73;2.25;;;7.50;99.90;;;;;;5114895;28;20039;-72
2023/01/02 01:07:54;;;;;;;14.60;2.40;;;7.50;99.90;;;;;;5115659;28;20372;-74
2023/01/02 01:10:22;;;;;;;14.60;2.00;;;7.40;99.90;;;;;;5115382;28;20058;-74
2023/01/02 01:12:50;;;;;;;11.50;2.00;;;7.40;99.90;;;;;;5115669;28;20379;-73
2023/01/02 01:15:18;;;;;;;15.13;1.98;;;7.40;99.90;;;;;;5097673;28;20055;-73
2023/01/02 01:17:45;;;;;;;10.43;1.85;;;7.40;99.90;;;;;;5080097;28;20472;-73
2023/01/02 01:20:13;;;;;;;13.30;2.10;;;7.30;99.90;;;;;;5115173;28;20066;-75
2023/01/02 01:22:40;;;;;;;11.65;1.98;;;7.30;99.90;;;;;;5098311;28;20047;-73
2023/01/02 01:25:08;;;;;;;9.80;1.60;;;7.20;99.90;;;;;;5114548;28;20052;-73
2023/01/02 01:27:36;;;;;;;8.93;1.75;;;7.20;99.90;;;;;;5115645;28;20070;-74
2023/01/02 01:30:04;;;;;;;15.13;2.30;;;7.20;99.90;;;;;;5115577;28;20043;-74
2023/01/02 01:32:32;;;;;;;10.45;1.90;;;7.10;99.90;;;;;;5096443;28;20044;-73
2023/01/02 01:34:59;;;;;;;12.25;2.08;;;7.10;99.90;;;;;;5097298;28;20044;-74
2023/01/02 01:37:27;;;;;;;15.77;1.98;;;7.00;99.90;;;;;;5114910;28;20043;-74
2023/01/02 01:39:54;;;;;;;14.43;1.92;;;7.00;99.90;;;;;;5115369;28;20360;-73
2023/01/02 01:42:23;;;;;;;16.48;2.00;;;7.10;99.90;;;;;;5115447;28;20039;-74
2023/01/02 01:44:54;;;;;;;9.20;1.70;;;6.90;99.90;;;;;;5079760;28;20039;-72
2023/01/02 01:47:43;;;;;;;16.98;2.20;;;6.80;99.90;;;;;;5115163;28;20044;-74
2023/01/02 01:50:23;;;;;;;11.15;1.88;;;6.80;99.90;;;;;;5114272;28;20475;-74
2023/01/02 01:52:56;;;;;;;11.23;1.85;;;6.80;99.90;;;;;;5115476;28;20052;-73
2023/01/02 01:55:48;;;;;;;14.38;2.10;;;6.70;99.90;;;;;;5115360;28;20054;-72
2023/01/02 01:58:21;;;;;;;10.20;1.52;;;6.60;99.90;;;;;;5079735;28;20048;-74
2023/01/02 02:00:49;;;;;;;14.07;2.03;;;6.60;99.90;;;;;;5115148;28;20456;-74
2023/01/02 02:03:23;;;;;;;11.98;1.85;;;6.60;99.90;;;;;;5115127;28;20040;-75
2023/01/02 02:05:52;;;;;;;9.25;1.40;;;6.60;99.90;;;;;;5113751;28;20043;-72
2023/01/02 02:08:30;;;;;;;15.77;1.95;;;6.50;99.90;;;;;;5115136;28;20051;-73
2023/01/02 02:10:58;;;;;;;;;;;6.50;99.90;;;;;;5114227;28;20048;-74
2023/01/02 02:13:26;;;;;;;13.85;2.03;;;6.50;99.90;;;;;;5097516;28;19920;-74
2023/01/02 02:16:11;;;;;;;10.93;1.77;;;6.50;99.90;;;;;;5096889;28;20059;-74
2023/01/02 02:18:58;;;;;;;15.13;2.03;;;6.50;99.90;;;;;;5113722;28;20047;-73
2023/01/02 02:21:32;;;;;;;14.05;1.60;;;6.50;99.90;;;;;;5080867;28;20341;-75
2023/01/02 02:24:19;;;;;;;9.13;1.55;;;6.50;99.90;;;;;;5113739;28;20046;-74
2023/01/02 02:26:57;;;;;;;;;;;6.50;99.90;;;;;;5115231;28;20046;-74
2023/01/02 02:30:01;;;;;;;10.13;1.33;;;6.40;99.90;;;;;;5114951;28;19938;-74
2023/01/02 02:32:53;;;;;;;12.05;1.75;;;6.40;99.90;;;;;;5117808;28;20043;-74
2023/01/02 02:35:59;;;;;;;18.52;1.80;;;6.40;99.90;;;;;;5118591;28;20487;-75
2023/01/02 02:38:58;;;;;;;13.57;1.73;;;6.40;99.90;;;;;;5117580;28;20372;-74
2023/01/02 02:41:37;;;;;;;11.95;1.42;;;6.40;99.90;;;;;;5118895;28;20043;-74
2023/01/02 02:44:19;;;;;;;9.98;1.60;;;6.30;99.90;;;;;;5117471;28;20043;-73
2023/01/02 02:47:01;;;;;;;12.65;1.70;;;6.70;99.90;;;;;;5100829;28;20051;-73
2023/01/02 02:49:45;;;;;;;11.75;1.70;;;6.40;99.90;;;;;;5118528;28;20048;-73
2023/01/02 02:52:29;;;;;;;12.88;2.00;;;6.30;99.90;;;;;;5117411;28;20047;-75
2023/01/02 02:55:01;;;;;;;17.40;2.08;;;6.30;99.90;;;;;;5100797;28;20368;-74
2023/01/02 02:57:30;;;;;;;14.00;2.03;;;6.30;99.90;;;;;;5117238;28;20044;-73
2023/01/02 02:59:58;;;;;;;14.65;2.40;;;6.30;99.90;;;;;;5118251;28;20039;-75
2023/01/02 03:02:25;;;;;;;10.70;2.28;;;6.30;99.90;;;;;;5100388;28;20040;-75
2023/01/02 03:04:59;;;;;;;16.52;2.67;;;6.30;99.90;;;;;;5117013;28;20376;-74
2023/01/02 03:07:38;;;;;;;14.98;2.88;;;7.10;99.90;;;;;;5118293;28;20051;-74
2023/01/02 03:10:25;;;;;;;15.65;3.00;;;6.30;99.90;;;;;;5118148;28;20054;-74
2023/01/02 03:13:06;;;;;;;21.17;3.10;;;6.30;99.90;;;;;;5118196;28;20364;-73
2023/01/02 03:15:55;;;;;;;17.17;3.15;;;6.30;99.90;;;;;;5100797;28;20043;-75
2023/01/02 03:18:44;;;;;;;9.40;2.55;;;6.30;99.90;;;;;;5116837;28;20051;-74
2023/01/02 03:21:28;;;;;;;14.68;2.83;;;6.20;99.90;;;;;;5100179;28;20051;-74
2023/01/02 03:24:02;;;;;;;12.35;2.85;;;6.20;99.90;;;;;;5098899;28;20051;-74
2023/01/02 03:26:32;;;;;;;21.35;3.33;;;6.20;99.90;;;;;;5118329;28;20048;-75
2023/01/02 03:29:15;;;;;;;16.15;2.83;;;6.20;99.90;;;;;;5117949;27;20062;-73
2023/01/02 03:31:47;;;;;;;13.60;3.30;;;6.20;99.90;;;;;;5116540;28;20043;-74
2023/01/02 03:34:20;;;;;;;11.52;2.60;;;6.10;99.90;;;;;;5117768;28;20048;-72
2023/01/02 03:36:52;;;;;;;12.65;2.70;;;6.10;99.90;;;;;;5099758;28;20102;-73
2023/01/02 03:39:25;;;;;;;13.50;2.63;;;6.10;99.90;;;;;;5117731;28;20047;-73
2023/01/02 03:42:10;;;;;;;18.73;2.90;;;6.10;99.90;;;;;;5117055;28;20356;-72
2023/01/02 03:44:49;;;;;;;18.98;3.30;;;6.10;99.90;;;;;;5116369;28;20062;-73
2023/01/02 03:47:19;;;;;;;11.77;2.78;;;6.80;99.90;;;;;;5099783;28;20040;-74
2023/01/02 03:49:50;;;;;;;18.85;3.78;;;6.00;99.90;;;;;;5117751;28;20043;-74
2023/01/02 03:52:18;;;;;;;20.33;4.15;;;6.00;99.90;;;;;;5116278;28;20043;-74
2023/01/02 03:54:54;;;;;;;22.10;4.20;;;6.70;99.90;;;;;;5117176;28;20054;-74
2023/01/02 03:57:31;;;;;;;22.25;4.38;;;6.00;99.90;;;;;;5098689;28;20059;-75
2023/01/02 04:00:12;;;;;;;18.38;4.20;;;6.20;99.90;;;;;;5099646;28;20054;-74
2023/01/02 04:02:57;;;;;;;16.05;3.80;;;6.20;99.90;;;;;;5099550;28;20047;-74
2023/01/02 04:06:07;;;;;;;19.90;3.33;;;6.20;99.90;;;;;;5115839;28;20064;-73
2023/01/02 04:08:43;;;;;;;21.08;3.65;;;6.30;99.90;;;;;;4998680;28;20609;-75
2023/01/02 04:11:16;;;;;;;21.23;3.20;;;6.30;99.90;;;;;;5013795;28;20491;-74
2023/01/02 04:13:58;;;;;;;20.70;3.03;;;7.10;99.90;;;;;;5074204;28;20047;-75
2023/01/02 04:16:32;;;;;;;20.73;2.85;;;6.40;99.90;;;;;;5116923;28;20376;-74
2023/01/02 04:19:12;;;;;;;16.73;2.83;;;6.50;99.90;;;;;;5115952;28;20054;-73
2023/01/02 04:21:41;;;;;;;15.93;2.65;;;6.50;99.90;;;;;;5099008;28;20495;-75
2023/01/02 04:24:20;;;;;;;17.92;2.92;;;6.50;99.90;;;;;;5115602;28;20052;-74
2023/01/02 04:26:53;;;;;;;21.48;2.85;;;6.60;99.90;;;;;;5082369;28;20055;-73
2023/01/02 04:29:21;;;;;;;22.25;3.38;;;6.60;99.90;;;;;;5116573;28;20047;-75
2023/01/02 04:32:10;;;;;;;19.77;3.65;;;6.60;99.90;;;;;;5115480;28;20059;-73
2023/01/02 04:34:39;;;;;;;25.17;3.83;;;6.60;99.90;;;;;;5099147;28;20392;-75
2023/01/02 04:37:06;;;;;;;17.05;4.18;;;7.80;99.90;;;;;;5097751;28;20050;-73
2023/01/02 04:39:36;;;;;;;19.17;4.53;;;6.60;99.90;;;;;;5098895;28;20038;-75
2023/01/02 04:42:04;;;;;;;27.05;5.25;;;6.70;99.90;;;;;;5116547;28;20036;-74
2023/01/02 04:44:31;;;;;;;16.20;4.43;;;6.80;99.90;;;;;;5115158;28;20062;-74
2023/01/02 04:47:00;;;;;;;15.88;4.05;;;6.90;99.90;;;;;;5116369;28;20051;-73
2023/01/02 04:49:28;;;;;;;22.73;4.60;;;6.80;99.90;;;;;;5116221;28;20043;-75
2023/01/02 04:51:56;;;;;;;23.02;4.82;;;6.90;99.90;;;;;;5097660;28;20047;-73
2023/01/02 04:54:23;;;;;;;21.52;4.50;;;6.90;99.90;;;;;;5115336;28;20054;-74
2023/01/02 04:56:51;;;;;;;27.02;4.90;;;6.90;99.90;;;;;;5115387;28;20050;-74
2023/01/02 04:59:18;;;;;;;23.20;4.53;;;6.90;99.90;;;;;;5116127;28;20043;-74
2023/01/02 05:01:46;;;;;;;25.20;4.82;;;6.90;99.90;;;;;;5115916;28;20276;-73
2023/01/02 05:04:13;;;;;;;14.43;4.22;;;6.90;99.90;;;;;;5097607;28;20411;-74
2023/01/02 05:06:41;;;;;;;23.83;4.45;;;6.90;99.90;;;;;;5115949;28;20052;-74
2023/01/02 05:09:08;;;;;;;19.67;4.28;;;6.90;99.90;;;;;;5116031;28;20044;-73
2023/01/02 05:11:36;;;;;;;19.83;4.60;;;6.90;99.90;;;;;;5096853;28;20058;-73
2023/01/02 05:14:03;;;;;;;19.35;4.28;;;7.30;99.90;;;;;;5116173;28;20371;-74
2023/01/02 05:16:34;;;;;;;18.80;4.68;;;8.10;99.90;;;;;;5116178;28;20058;-75
2023/01/02 05:19:01;;;;;;;22.10;4.22;;;7.00;99.90;;;;;;5096690;28;20067;-73
2023/01/02 05:24:15;;;;;;;17.17;4.13;;;7.00;99.90;;;;;;5114327;28;20043;-73
2023/01/02 05:26:42;;;;;;;27.05;4.60;;;7.00;99.90;;;;;;5098223;28;20048;-75
2023/01/02 05:29:09;;;;;;;19.98;4.25;;;7.50;99.90;;;;;;5115607;28;20054;-73
2023/01/02 05:31:37;;;;;;;20.08;4.22;;;7.00;99.90;;;;;;5096905;28;20043;-74
2023/01/02 05:34:04;;;;;;;27.00;4.25;;;7.00;99.90;;;;;;5115306;28;20383;-73
2023/01/02 05:36:32;;;;;;;24.35;4.38;;;7.00;99.90;;;;;;5097594;28;20468;-74
2023/01/02 05:39:00;;;;;;;20.20;4.20;;;7.00;99.90;;;;;;5096386;28;20048;-74
2023/01/02 05:41:27;;;;;;;;;;;7.00;99.90;;;;;;5116095;28;20050;-74
2023/01/02 05:43:55;;;;;;;23.75;4.10;;;7.00;99.90;;;;;;5096322;28;19930;-74
2023/01/02 05:46:22;;;;;;;19.98;4.07;;;7.00;99.90;;;;;;5115326;28;20048;-74
2023/01/02 05:48:50;;;;;;;17.70;3.80;;;7.00;99.90;;;;;;5115388;28;20043;-73
2023/01/02 05:51:17;;;;;;;15.38;3.63;;;7.10;99.90;;;;;;5079529;28;20058;-72
2023/01/02 05:53:45;;;;;;;19.00;3.65;;;7.10;99.90;;;;;;5115513;28;20039;-72
2023/01/02 05:56:16;;;;;;;12.80;3.53;;;7.10;99.90;;;;;;5115468;28;20040;-73
2023/01/02 05:58:46;;;;;;;20.65;3.70;;;7.10;99.90;;;;;;5113969;28;20070;-73
2023/01/02 06:01:22;;;;;;;19.60;3.00;;;7.10;99.90;;;;;;5097279;28;20046;-73
2023/01/02 06:03:52;;;;;;;17.30;3.30;;;7.20;99.90;;;;;;5114110;28;20054;-73
2023/01/02 06:06:23;;;;;;;16.10;3.03;;;7.10;99.90;;;;;;5121233;28;20051;-74
2023/01/02 06:08:50;;;;;;;20.05;2.83;;;7.20;99.90;;;;;;5122251;28;20039;-74
2023/01/02 06:11:18;;;;;;;23.65;3.08;;;7.20;99.90;;;;;;5103100;28;20043;-74
2023/01/02 06:13:46;;;;;;;19.20;3.25;;;7.20;99.90;;;;;;5103787;28;20048;-75
2023/01/02 06:16:14;;;;;;;14.48;2.60;;;7.20;99.90;;;;;;5121813;28;20047;-74
2023/01/02 06:18:41;;;;;;;17.30;2.88;;;9.00;99.90;;;;;;5102972;28;20039;-74
2023/01/02 06:21:11;;;;;;;21.05;2.80;;;7.20;99.90;;;;;;5121664;28;20044;-72
2023/01/02 06:23:40;;;;;;;24.88;3.28;;;7.60;99.90;;;;;;5102772;28;20468;-74
2023/01/02 06:26:15;;;;;;;16.52;2.25;;;7.40;99.90;;;;;;5122042;28;20360;-74
2023/01/02 06:28:43;;;;;;;21.73;2.47;;;7.30;99.90;;;;;;5103631;28;20052;-74
2023/01/02 06:31:15;;;;;;;12.40;2.40;;;7.30;99.90;;;;;;5120503;28;20048;-74
2023/01/02 06:33:43;;;;;;;16.23;2.67;;;7.40;99.90;;;;;;5104075;28;20047;-74
2023/01/02 06:36:16;;;;;;;17.55;2.85;;;7.40;99.90;;;;;;5121405;28;20054;-74
2023/01/02 06:38:45;;;;;;;18.65;2.15;;;7.40;99.90;;;;;;5120860;28;20040;-74
2023/01/02 06:41:12;;;;;;;;;;;7.40;99.90;;;;;;5122076;28;20047;-74
2023/01/02 06:43:42;;;;;;;19.92;2.08;;;7.40;99.90;;;;;;5102433;28;19950;-74
2023/01/02 06:46:11;;;;;;;25.58;2.22;;;7.50;99.90;;;;;;5121412;28;20047;-74
2023/01/02 06:48:40;;;;;;;21.13;2.15;;;7.50;99.90;;;;;;5121523;28;20039;-74
2023/01/02 06:51:10;;;;;;;13.90;2.17;;;7.60;99.90;;;;;;5120321;28;20046;-74
2023/01/02 06:53:40;;;;;;;19.17;2.42;;;7.50;99.90;;;;;;5121571;28;20043;-73
2023/01/02 06:56:09;;;;;;;13.95;1.98;;;7.50;99.90;;;;;;5121710;28;20039;-73
2023/01/02 06:58:37;;;;;;;13.43;1.98;;;7.50;99.90;;;;;;5120238;27;20039;-73
2023/01/02 07:01:07;;;;;;;14.98;2.08;;;7.50;99.90;;;;;;5103579;28;20038;-73
2023/01/02 07:03:35;;;;;;;12.73;1.70;;;7.60;99.90;;;;;;5120600;28;20066;-74
2023/01/02 07:06:09;;;;;;;9.10;1.45;;;7.60;99.90;;;;;;5121152;27;20047;-74
2023/01/02 07:08:37;;;;;;;19.83;2.30;;;7.80;99.90;;;;;;5121710;28;20375;-73
2023/01/02 07:11:22;;;;;;;14.25;1.95;;;8.00;99.90;;;;;;5120123;28;20046;-75
2023/01/02 07:13:52;;;;;;;12.10;1.50;;;7.70;99.90;;;;;;5103756;28;20039;-73
2023/01/02 07:16:21;;;;;;;10.43;1.40;;;8.20;99.90;;;;;;5084631;28;20475;-74
2023/01/02 07:18:52;;;;;;;12.05;1.80;;;7.70;99.90;;;;;;5116779;28;20071;-74
2023/01/02 07:21:20;;;;;;;20.70;2.15;;;7.50;99.90;;;;;;5118544;28;20039;-75
2023/01/02 07:23:48;;;;;;;11.35;1.90;;;7.50;99.90;;;;;;5116818;28;20036;-74
2023/01/02 07:26:16;;;;;;;22.98;1.92;;;7.40;99.90;;;;;;5117999;28;20052;-73
2023/01/02 07:28:45;;;;;;;16.88;1.80;;;7.30;99.90;;;;;;5100025;28;20380;-74
2023/01/02 07:31:17;;;;;;;14.10;1.98;;;7.30;99.90;;;;;;5098667;28;20052;-74
2023/01/02 07:33:45;;;;;;;10.55;1.83;;;7.20;99.90;;;;;;5117856;28;20476;-74
2023/01/02 07:36:16;;;;;;;22.92;2.10;;;7.10;99.90;;;;;;5117696;28;20054;-73
2023/01/02 07:38:49;;;;;;;20.55;2.13;;;7.10;99.90;;;;;;5098929;28;20044;-74
2023/01/02 07:41:19;;;;;;;15.90;2.15;;;7.00;99.90;;;;;;5099728;28;20039;-73
2023/01/02 07:43:47;;;;;;;10.38;1.63;;;7.00;99.90;;;;;;5081503;28;20041;-75
2023/01/02 07:46:17;;;;;;;17.65;2.10;;;6.90;99.90;;;;;;5117837;28;20053;-74
2023/01/02 07:48:45;;;;;;;10.85;1.88;;;6.90;99.90;;;;;;5117356;28;20040;-75
2023/01/02 07:51:13;;;;;;;;;;;7.60;99.90;;;;;;5098908;28;20035;-73
2023/01/02 07:53:44;;;;;;;12.77;1.88;;;6.80;99.90;;;;;;5100022;28;19920;-74
2023/01/02 07:56:12;;;;;;;15.80;2.40;;;6.80;99.90;;;;;;5116715;28;20046;-73
2023/01/02 07:58:39;;;;;;;15.95;2.22;;;6.70;99.90;;;;;;5098081;28;20462;-74
2023/01/02 08:01:09;;;;;;;18.42;2.08;;;6.70;99.90;;;;;;5117210;28;20055;-73
2023/01/02 08:03:38;;;;;;;21.98;2.88;;;6.60;99.90;;;;;;5098141;28;20036;-74
2023/01/02 08:06:11;;;;;;;24.55;2.22;;;6.60;99.90;;;;;;5116832;28;20052;-74
2023/01/02 08:08:39;;;;;;;15.52;2.08;;;6.50;99.90;;;;;;5099284;28;20047;-74
2023/01/02 08:11:15;;;;;;;16.80;2.17;;;6.50;99.90;;;;;;5097949;28;20472;-74
2023/01/02 08:13:43;;;;;;;21.02;2.10;;;6.50;99.90;;;;;;5117291;28;20054;-74
2023/01/02 08:16:19;;;;;;;16.88;1.80;;;6.50;99.90;;;;;;5099422;28;20522;-73
2023/01/02 08:18:50;;;;;;;17.15;2.28;;;6.40;99.90;;;;;;5115875;28;20372;-74
2023/01/02 08:21:17;;;;;;;18.90;3.25;;;7.20;99.90;;;;;;5098723;28;20047;-74
2023/01/02 08:23:45;;;;;;;14.77;1.85;;;6.30;99.90;;;;;;5097097;28;20055;-74
2023/01/02 08:26:13;;;;;;;21.25;2.22;;;6.20;99.90;;;;;;5098529;28;20452;-74
2023/01/02 08:28:40;;;;;;;18.45;1.90;;;6.20;99.90;;;;;;5116797;28;20043;-75
2023/01/02 08:31:14;;;;;;;21.15;2.40;;;6.20;99.90;;;;;;5115285;28;20380;-73
2023/01/02 08:33:41;;;;;;;23.73;2.70;;;6.30;99.90;;;;;;5081792;28;20051;-73
2023/01/02 08:36:10;;;;;;;17.17;2.60;;;6.20;99.90;;;;;;5116167;28;20055;-73
2023/01/02 08:38:37;;;;;;;25.95;4.85;;;6.30;99.90;;;;;;5114745;28;20050;-74
2023/01/02 08:41:05;;;;;;;17.55;2.72;;;6.20;99.90;;;;;;5116094;28;20046;-71
2023/01/02 08:43:34;;;;;;;11.73;1.90;;;6.20;99.90;;;;;;5097366;28;20043;-74
2023/01/02 08:46:06;;;;;;;19.55;2.60;;;6.20;99.90;;;;;;5115882;28;20490;-72
2023/01/02 08:48:34;;;;;;;15.65;2.13;;;6.20;99.90;;;;;;5116050;28;20067;-72
2023/01/02 08:51:02;;;;;;;14.35;2.17;;;6.20;99.90;;;;;;5114944;28;20380;-73
2023/01/02 08:53:30;;;;;;;15.82;1.77;;;6.20;99.90;;;;;;5115622;28;20491;-76
2023/01/02 08:56:17;;;;;;;14.00;1.92;;;6.20;99.90;;;;;;5097940;28;20051;-75
2023/01/02 08:58:56;;;;;;;14.82;1.60;;;6.20;99.90;;;;;;5114287;28;20043;-75
2023/01/02 09:01:25;;;;;;;15.50;2.55;;;6.20;99.90;;;;;;5064683;28;20047;-74
2023/01/02 09:03:53;;;;;;;13.05;2.10;;;6.20;99.90;;;;;;5114742;28;20715;-75
2023/01/02 09:06:22;;;;;;;;;;;6.20;99.90;;;;;;5115950;28;20048;-74
2023/01/02 09:08:54;;;;;;;15.88;2.38;;;6.20;99.90;;;;;;5097773;28;19919;-75
2023/01/02 09:11:25;;;;;;;19.65;2.47;;;6.20;99.90;;;;;;5114439;28;20364;-75
2023/01/02 09:13:53;;;;;;;19.55;2.28;;;6.20;99.90;;;;;;5115608;28;20054;-75
2023/01/02 09:16:22;;;;;;;24.27;3.25;;;6.20;99.90;;;;;;5115447;28;20054;-74
2023/01/02 09:18:50;;;;;;;;;;;6.20;99.90;;;;;;5114666;28;20047;-74
2023/01/02 09:21:17;;;;;;;24.00;2.25;;;6.30;99.90;;;;;;5115485;28;19924;-75
2023/01/02 09:23:46;;;;;;;;;;;6.20;99.90;;;;;;5079591;28;20058;-74
2023/01/02 09:26:13;;;;;;;17.92;2.30;;;6.20;99.90;;;;;;5100217;28;20306;-78
2023/01/02 09:28:41;;;;;;;20.10;2.55;;;6.20;99.90;;;;;;5099234;28;20047;-76
2023/01/02 09:31:14;;;;;;;18.67;2.70;;;6.40;99.90;;;;;;5093199;28;20051;-75
2023/01/02 09:33:43;;;;;;;18.17;2.60;;;6.30;99.90;;;;;;5105809;28;20044;-74
2023/01/02 09:36:13;;;;;;;23.42;3.70;;;6.30;99.90;;;;;;5114211;28;20048;-74
2023/01/02 09:38:41;;;;;;;15.82;2.80;;;6.30;99.90;;;;;;5113590;28;20043;-79
2023/01/02 09:41:20;;;;;;;23.25;3.25;;;6.30;99.90;;;;;;5113652;28;20052;-77
2023/01/02 09:44:19;;;;;;;16.92;2.72;;;6.20;99.90;;;;;;5113916;28;20050;-77
2023/01/02 09:47:02;;;;;;;21.45;3.17;;;6.30;99.90;;;;;;5077628;28;20048;-79
2023/01/02 09:49:42;;;;;;;25.85;3.15;;;6.30;99.90;;;;;;5080888;28;20063;-77
2023/01/02 09:52:20;;;;;;;20.48;2.95;;;6.30;99.90;;;;;;5097019;28;20062;-76
2023/01/02 09:54:48;;;;;;;20.92;3.10;;;6.40;99.90;;;;;;5115356;28;20448;-79
2023/01/02 09:57:33;;;;;;;24.00;3.22;;;6.50;99.90;;;;;;5114028;28;20156;-79
2023/01/02 10:00:16;;;;;;;15.23;2.83;;;6.60;99.90;;;;;;5097197;28;20043;-76
2023/01/02 10:03:11;;;;;;;23.83;3.25;;;6.60;99.90;;;;;;5097550;28;20052;-80
2023/01/02 10:06:02;;;;;;;15.30;3.00;;;6.70;99.90;;;;;;5113747;28;20062;-79
2023/01/02 10:09:15;;;;;;;20.30;3.03;;;6.90;99.90;;;;;;5087116;28;20062;-79
2023/01/02 10:12:02;;;;;;;22.20;3.13;;;7.00;99.90;;;;;;5049081;28;20063;-79
2023/01/02 10:14:59;;;;;;;23.67;3.65;;;7.10;99.90;;;;;;5115229;28;20048;-79
2023/01/02 10:17:30;;;;;;;20.25;3.90;;;7.30;99.90;;;;;;5095815;28;20063;-78
2023/01/02 10:20:03;;;;;;;17.25;3.63;;;8.80;99.90;;;;;;5096917;28;20044;-75
2023/01/02 10:22:54;;;;;;;17.83;3.40;;;8.10;99.90;;;;;;5115363;28;20039;-78
2023/01/02 10:25:28;;;;;;;16.33;2.65;;;9.40;99.90;;;;;;5095999;28;20380;-77
2023/01/02 10:28:01;;;;;;;14.82;3.38;;;9.10;99.90;;;;;;5097467;28;20375;-76
2023/01/02 10:30:36;;;;;;;16.42;2.92;;;8.60;99.90;;;;;;5113707;28;20059;-77
2023/01/02 10:33:15;;;;;;;20.63;2.88;;;7.80;99.90;;;;;;5114753;28;20148;-78
2023/01/02 10:35:47;;;;;;;12.35;2.80;;;7.70;99.90;;;;;;5079555;28;20039;-78
2023/01/02 10:38:17;;;;;;;11.10;2.13;;;7.60;99.90;;;;;;5113302;28;20040;-77
2023/01/02 10:40:48;;;;;;;13.48;3.10;;;8.00;99.90;;;;;;5096448;28;20035;-79
2023/01/02 10:43:17;;;;;;;15.95;3.00;;;7.40;99.90;;;;;;5114448;28;20039;-78
2023/01/02 10:45:45;;;;;;;19.08;3.42;;;8.40;99.90;;;;;;5078568;28;20043;-78
2023/01/02 10:48:15;;;;;;;17.55;3.05;;;7.30;99.90;;;;;;5096470;28;20048;-77
2023/01/02 10:50:50;;;;;;;18.15;3.20;;;9.30;99.90;;;;;;5095235;28;20051;-75
2023/01/02 10:53:32;;;;;;;13.23;3.17;;;7.70;99.90;;;;;;5117430;28;20105;-78
2023/01/02 10:56:21;;;;;;;20.58;4.00;;;7.50;99.90;;;;;;5118221;28;20055;-81
2023/01/02 10:58:51;;;;;;;12.55;3.30;;;7.60;99.90;;;;;;5117107;28;20379;-82
2023/01/02 11:01:21;;;;;;;18.85;3.53;;;7.80;99.90;;;;;;5118112;28;20049;-80
2023/01/02 11:04:10;;;;;;;14.27;3.35;;;7.90;99.90;;;;;;5116857;28;20047;-79
2023/01/02 11:06:58;;;;;;;13.88;3.03;;;9.20;99.90;;;;;;5117646;28;20063;-82
2023/01/02 11:09:30;;;;;;;14.25;3.28;;;8.00;99.90;;;;;;5118003;28;20047;-84
2023/01/02 11:12:12;;;;;;;9.38;2.80;;;9.50;99.90;;;;;;5116850;28;20055;-82
2023/01/02 11:14:40;;;;;;;14.05;3.22;;;8.10;99.90;;;;;;5083099;28;20078;-81
2023/01/02 11:17:13;;;;;;;9.23;2.45;;;8.20;99.90;;;;;;5116768;28;20062;-80
2023/01/02 11:19:49;;;;;;;11.88;3.42;;;10.70;99.90;;;;;;5099540;28;20043;-79
2023/01/02 11:22:22;;;;;;;11.88;2.80;;;8.20;99.90;;;;;;5117701;28;20035;-80
2023/01/02 11:25:00;;;;;;;14.75;3.08;;;8.20;99.90;;;;;;5116576;28;20043;-79
2023/01/02 11:27:43;;;;;;;9.15;2.90;;;8.20;99.90;;;;;;5083407;28;20031;-81
2023/01/02 11:30:27;;;;;;;12.40;2.78;;;8.20;99.90;;;;;;5116560;28;20054;-78
2023/01/02 11:33:14;;;;;;;13.23;2.97;;;8.10;99.90;;;;;;5099522;28;20055;-81
2023/01/02 11:35:51;;;;;;;10.85;2.75;;;8.10;99.90;;;;;;5117182;28;20051;-81
2023/01/02 11:38:22;;;;;;;9.60;2.33;;;8.10;99.90;;;;;;5098492;28;20048;-76
2023/01/02 11:40:59;;;;;;;8.48;2.70;;;8.00;99.90;;;;;;5117481;28;20044;-77
2023/01/02 11:43:47;;;;;;;9.80;2.70;;;9.30;99.90;;;;;;5117312;28;20052;-76
2023/01/02 11:46:33;;;;;;;9.95;2.92;;;7.90;99.90;;;;;;5117152;28;20043;-76
2023/01/02 11:49:14;;;;;;;10.10;2.92;;;7.80;99.90;;;;;;5099328;28;20058;-78
2023/01/02 11:51:43;;;;;;;16.77;2.70;;;7.70;99.90;;;;;;5098037;28;20048;-83
2023/01/02 11:54:20;;;;;;;13.15;2.70;;;7.60;99.90;;;;;;5099160;28;20059;-76
2023/01/02 11:56:49;;;;;;;8.93;2.42;;;7.60;99.90;;;;;;5099152;28;20070;-75
2023/01/02 11:59:38;;;;;;;9.70;2.85;;;8.20;99.90;;;;;;5116887;28;20052;-75
2023/01/02 12:02:16;;;;;;;9.50;3.15;;;7.60;99.90;;;;;;5116600;28;20040;-74
2023/01/02 12:04:44;;;;;;;8.98;2.70;;;7.60;99.90;;;;;;5097586;28;20047;-78
2023/01/02 12:07:41;;;;;;;9.80;3.22;;;9.30;99.90;;;;;;5116810;28;20047;-75
2023/01/02 12:10:41;;;;;;;11.98;2.50;;;7.70;99.90;;;;;;5099170;28;20063;-74
2023/01/02 12:13:32;;;;;;;9.05;2.50;;;7.80;99.90;;;;;;5098901;28;20051;-77
2023/01/02 12:16:17;;;;;;;9.43;2.30;;;7.80;99.90;;;;;;5116715;28;20039;-72
2023/01/02 12:19:01;;;;;;;9.88;2.45;;;7.70;99.90;;;;;;5080556;28;20063;-77
2023/01/02 12:21:53;;;;;;;7.35;2.20;;;7.60;99.90;;;;;;5116604;28;20460;-76
2023/01/02 12:24:38;;;;;;;5.47;2.10;;;7.60;99.90;;;;;;5115308;28;20380;-74
2023/01/02 12:27:24;;;;;;;6.88;2.20;;;7.60;99.90;;;;;;5116227;28;20040;-74
2023/01/02 12:30:03;;;;;;;10.10;2.10;;;9.80;99.90;;;;;;5116284;28;20476;-77
2023/01/02 12:32:46;;;;;;;6.00;2.10;;;7.60;99.90;;;;;;5114912;28;20058;-77
2023/01/02 12:35:20;;;;;;;7.82;2.20;;;7.50;99.90;;;;;;5098300;28;20044;-74
2023/01/02 12:37:56;;;;;;;8.82;2.50;;;7.60;99.90;;;;;;5115125;28;20070;-76
2023/01/02 12:40:26;;;;;;;9.13;2.10;;;7.50;99.90;;;;;;5116098;28;20444;-75
2023/01/02 12:43:19;;;;;;;6.18;2.20;;;7.50;99.90;;;;;;5107880;27;20063;-78
2023/01/02 12:46:10;;;;;;;5.65;2.03;;;7.30;99.90;;;;;;5096734;28;20479;-75
2023/01/02 12:48:56;;;;;;;8.65;2.40;;;7.50;99.90;;;;;;5098072;28;20042;-74
2023/01/02 12:51:52;;;;;;;6.70;2.10;;;8.30;99.90;;;;;;5114148;28;20027;-74
2023/01/02 12:54:53;;;;;;;7.03;2.45;;;7.70;99.90;;;;;;5056434;28;20372;-75
2023/01/02 12:57:50;;;;;;;5.18;2.20;;;7.80;99.90;;;;;;5022589;28;20048;-75
2023/01/02 13:00:33;;;;;;;12.75;2.50;;;7.80;99.90;;;;;;5007098;28;20062;-74
2023/01/02 13:03:23;;;;;;;7.85;2.22;;;8.00;99.90;;;;;;5094483;28;20044;-74
2023/01/02 13:05:59;;;;;;;7.47;2.33;;;7.90;99.90;;;;;;5094006;28;20476;-74
2023/01/02 13:08:31;;;;;;;10.18;2.50;;;8.90;99.90;;;;;;5095170;28;20059;-74
2023/01/02 13:11:03;;;;;;;8.57;2.08;;;8.00;99.90;;;;;;5094019;28;20522;-74
2023/01/02 13:13:34;;;;;;;7.47;1.98;;;8.00;99.90;;;;;;5095160;28;20052;-74
2023/01/02 13:16:08;;;;;;;7.82;2.47;;;8.20;99.90;;;;;;5094299;28;20048;-74
2023/01/02 13:18:53;;;;;;;8.43;2.25;;;8.20;99.90;;;;;;5093841;28;20051;-75
2023/01/02 13:21:49;;;;;;;6.60;2.25;;;9.30;99.90;;;;;;5077221;28;20044;-74
2023/01/02 13:24:22;;;;;;;7.63;2.10;;;8.40;99.90;;;;;;5076272;28;20468;-74
2023/01/02 13:26:52;;;;;;;5.40;2.35;;;8.50;99.90;;;;;;5094938;28;20039;-75
2023/01/02 13:29:25;;;;;;;6.47;2.28;;;8.60;99.90;;;;;;5076886;28;20058;-75